createdAt,value
2018-06-09T00:00:27.487Z,34.03
2018-06-09T00:02:57.620Z,32.50
2018-06-09T00:05:28.842Z,35.30
2018-06-09T00:07:59.614Z,37.83
2018-06-09T00:10:29.624Z,28.20
2018-06-09T00:12:59.787Z,27.70
2018-06-09T00:15:29.905Z,30.10
2018-06-09T00:18:00.807Z,27.25
2018-06-09T00:20:31.563Z,26.12
2018-06-09T00:23:01.849Z,28.80
2018-06-09T00:25:32.439Z,29.67
2018-06-09T00:28:02.550Z,27.43
2018-06-09T00:30:32.522Z,28.23
2018-06-09T00:33:03.553Z,24.57
2018-06-09T00:35:33.744Z,22.20
2018-06-09T00:38:03.648Z,28.50
2018-06-09T00:40:33.717Z,23.93
2018-06-09T00:43:03.697Z,21.83
2018-06-09T00:45:33.855Z,26.23
2018-06-09T00:48:03.986Z,24.80
2018-06-09T00:50:34.028Z,26.57
2018-06-09T00:53:03.888Z,23.90
2018-06-09T00:55:34.003Z,27.53
2018-06-09T00:58:04.124Z,22.07
2018-06-09T01:00:34.187Z,22.50
2018-06-09T01:03:04.359Z,40.13
2018-06-09T01:05:34.347Z,41.50
2018-06-09T01:08:04.407Z,27.60
2018-06-09T01:10:34.283Z,29.20
2018-06-09T01:13:04.674Z,27.40
2018-06-09T01:15:34.559Z,27.57
2018-06-09T01:18:04.533Z,29.13
2018-06-09T01:20:34.888Z,29.20
2018-06-09T01:23:04.925Z,26.57
2018-06-09T01:25:34.789Z,26.43
2018-06-09T01:28:05.119Z,24.70
2018-06-09T01:30:35.205Z,24.67
2018-06-09T01:33:04.908Z,27.07
2018-06-09T01:35:34.903Z,24.67
2018-06-09T01:38:04.869Z,23.53
2018-06-09T01:40:35.074Z,25.50
2018-06-09T01:43:05.031Z,24.20
2018-06-09T01:45:35.116Z,23.93
2018-06-09T01:48:05.097Z,24.52
2018-06-09T01:50:35.655Z,23.63
2018-06-09T01:53:05.827Z,21.80
2018-06-09T01:55:36.067Z,21.70
2018-06-09T01:58:06.282Z,22.17
2018-06-09T02:00:36.231Z,21.27
2018-06-09T02:03:06.392Z,20.72
2018-06-09T02:05:36.346Z,18.15
2018-06-09T02:08:06.267Z,17.43
2018-06-09T02:10:36.229Z,19.13
2018-06-09T02:13:06.136Z,18.70
2018-06-09T02:15:36.246Z,18.03
2018-06-09T02:18:06.247Z,16.73
2018-06-09T02:20:36.063Z,15.07
2018-06-09T02:23:05.862Z,17.00
2018-06-09T02:25:35.783Z,18.30
2018-06-09T02:28:05.988Z,16.12
2018-06-09T02:30:36.165Z,15.70
2018-06-09T02:33:06.056Z,15.63
2018-06-09T02:35:36.188Z,16.20
2018-06-09T02:38:06.073Z,15.10
2018-06-09T02:40:36.056Z,13.28
2018-06-09T02:43:05.907Z,13.97
2018-06-09T02:45:36.126Z,14.57
2018-06-09T02:48:06.264Z,16.00
2018-06-09T02:50:36.591Z,14.05
2018-06-09T02:53:07.733Z,15.07
2018-06-09T02:55:38.043Z,14.67
2018-06-09T02:58:08.117Z,13.88
2018-06-09T03:00:39.227Z,13.90
2018-06-09T03:03:09.394Z,14.13
2018-06-09T03:05:39.977Z,12.33
2018-06-09T03:08:10.421Z,15.13
2018-06-09T03:10:40.997Z,13.70
2018-06-09T03:13:11.537Z,15.10
2018-06-09T03:15:42.008Z,14.10
2018-06-09T03:18:12.553Z,16.02
2018-06-09T03:20:43.003Z,14.70
2018-06-09T03:23:13.528Z,17.70
2018-06-09T03:25:44.226Z,14.20
2018-06-09T03:28:14.242Z,14.25
2018-06-09T03:40:19.988Z,14.37
2018-06-09T03:42:50.253Z,12.83
2018-06-09T03:45:20.033Z,14.03
2018-06-09T03:47:49.736Z,26.10
2018-06-09T03:50:19.598Z,17.87
2018-06-09T03:52:49.708Z,16.90
2018-06-09T03:55:20.190Z,14.20
2018-06-09T03:57:50.909Z,13.88
2018-06-09T04:00:21.157Z,15.37
2018-06-09T04:02:51.698Z,13.75
2018-06-09T04:05:22.617Z,13.98
2018-06-09T04:07:52.808Z,12.40
2018-06-09T04:10:23.353Z,14.05
2018-06-09T04:12:53.837Z,12.43
2018-06-09T04:15:24.614Z,11.75
2018-06-09T04:17:54.842Z,11.53
2018-06-09T04:20:25.292Z,11.08
2018-06-09T04:22:55.874Z,11.03
2018-06-09T04:25:26.289Z,11.35
2018-06-09T04:27:56.889Z,11.65
2018-06-09T04:30:27.694Z,12.40
2018-06-09T04:32:57.938Z,11.70
2018-06-09T04:35:28.269Z,11.28
2018-06-09T04:37:58.981Z,11.15
2018-06-09T04:40:29.508Z,11.12
2018-06-09T04:42:59.792Z,11.00
2018-06-09T04:45:30.249Z,10.58
2018-06-09T04:48:01.219Z,10.75
2018-06-09T04:50:31.626Z,11.57
2018-06-09T04:53:02.210Z,10.90
2018-06-09T04:55:32.748Z,10.85
2018-06-09T04:58:03.409Z,10.23
2018-06-09T05:00:33.437Z,12.03
2018-06-09T05:03:03.338Z,10.30
2018-06-09T05:05:33.521Z,12.00
2018-06-09T05:08:03.609Z,10.00
2018-06-09T05:10:34.523Z,10.87
2018-06-09T05:13:04.520Z,10.80
2018-06-09T05:15:34.300Z,11.20
2018-06-09T05:18:04.433Z,12.43
2018-06-09T05:20:34.630Z,11.00
2018-06-09T05:23:04.723Z,11.57
2018-06-09T05:25:34.883Z,12.03
2018-06-09T05:28:05.251Z,11.33
2018-06-09T05:30:35.410Z,11.90
2018-06-09T05:33:05.514Z,11.93
2018-06-09T05:35:35.522Z,10.43
2018-06-09T05:38:05.959Z,11.20
2018-06-09T05:40:35.990Z,11.37
2018-06-09T05:43:06.315Z,11.20
2018-06-09T05:45:36.691Z,10.87
2018-06-09T05:48:06.870Z,13.60
2018-06-09T05:50:37.326Z,12.37
2018-06-09T05:53:07.280Z,11.80
2018-06-09T05:55:37.580Z,10.73
2018-06-09T05:58:07.874Z,11.77
2018-06-09T06:00:38.130Z,11.43
2018-06-09T06:03:08.111Z,10.80
2018-06-09T06:05:38.156Z,11.57
2018-06-09T06:08:08.243Z,6.93
2018-06-09T06:10:38.456Z,6.27
2018-06-09T06:13:08.593Z,10.67
2018-06-09T06:15:38.747Z,10.70
2018-06-09T06:18:09.028Z,9.33
2018-06-09T06:20:39.279Z,11.00
2018-06-09T06:25:16.811Z,10.50
2018-06-09T06:27:47.455Z,9.37
2018-06-09T06:30:17.513Z,9.50
2018-06-09T06:32:47.795Z,8.60
2018-06-09T06:35:18.302Z,10.60
2018-06-09T06:37:48.420Z,7.70
2018-06-09T06:40:18.686Z,8.50
2018-06-09T06:42:49.280Z,12.17
2018-06-09T06:45:19.709Z,9.10
2018-06-09T06:47:50.484Z,11.37
2018-06-09T06:50:20.125Z,8.07
2018-06-09T06:52:50.030Z,11.03
2018-06-09T06:55:19.964Z,10.17
2018-06-09T06:57:49.965Z,12.27
2018-06-09T07:00:20.036Z,12.23
2018-06-09T07:02:50.267Z,8.83
2018-06-09T07:05:20.200Z,7.58
2018-06-09T07:07:50.506Z,9.73
2018-06-09T07:10:20.705Z,8.03
2018-06-09T07:12:50.971Z,8.33
2018-06-09T07:15:21.205Z,12.13
2018-06-09T07:17:50.771Z,8.80
2018-06-09T07:20:20.794Z,10.50
2018-06-09T07:22:50.865Z,10.15
2018-06-09T07:25:21.060Z,10.57
2018-06-09T07:27:50.807Z,9.00
2018-06-09T07:30:21.320Z,9.27
2018-06-09T07:32:51.393Z,10.63
2018-06-09T07:35:21.387Z,8.55
2018-06-09T07:37:51.722Z,8.58
2018-06-09T07:40:21.690Z,9.67
2018-06-09T07:42:51.816Z,10.15
2018-06-09T07:45:21.776Z,11.63
2018-06-09T07:47:51.967Z,11.33
2018-06-09T07:50:22.306Z,15.73
2018-06-09T07:52:52.280Z,10.95
2018-06-09T07:55:22.344Z,12.50
2018-06-09T07:57:52.490Z,11.30
2018-06-09T08:00:22.765Z,14.58
2018-06-09T08:02:53.235Z,11.13
2018-06-09T08:05:23.184Z,11.17
2018-06-09T08:07:53.257Z,8.60
2018-06-09T08:10:23.520Z,9.17
2018-06-09T08:12:53.768Z,11.10
2018-06-09T08:15:23.682Z,13.10
2018-06-09T08:17:53.505Z,12.27
2018-06-09T08:20:23.331Z,11.60
2018-06-09T08:22:53.535Z,9.50
2018-06-09T08:25:24.246Z,8.73
2018-06-09T08:27:54.825Z,12.50
2018-06-09T08:30:25.967Z,8.93
2018-06-09T08:32:56.450Z,11.85
2018-06-09T08:40:21.472Z,8.27
2018-06-09T08:42:51.600Z,11.57
2018-06-09T08:45:21.868Z,10.43
2018-06-09T08:47:52.131Z,13.77
2018-06-09T08:50:22.174Z,10.97
2018-06-09T08:52:52.334Z,13.70
2018-06-09T08:55:22.331Z,14.40
2018-06-09T08:57:52.177Z,12.23
2018-06-09T09:00:22.791Z,8.88
2018-06-09T09:02:53.398Z,13.07
2018-06-09T09:05:23.896Z,10.53
2018-06-09T09:07:54.081Z,12.17
2018-06-09T09:10:24.203Z,9.90
2018-06-09T09:12:54.529Z,13.97
2018-06-09T09:15:24.707Z,12.85
2018-06-09T09:17:54.828Z,12.10
2018-06-09T09:20:25.082Z,12.68
2018-06-09T09:22:55.216Z,12.10
2018-06-09T09:25:25.552Z,10.83
2018-06-09T09:27:55.780Z,14.83
2018-06-09T09:30:25.948Z,20.12
2018-06-09T09:32:56.220Z,17.33
2018-06-09T09:35:26.312Z,9.93
2018-06-09T09:37:56.400Z,13.78
2018-06-09T09:40:26.380Z,13.63
2018-06-09T09:42:56.919Z,13.35
2018-06-09T09:45:27.158Z,11.97
2018-06-09T09:47:57.263Z,12.63
2018-06-09T09:50:26.969Z,10.40
2018-06-09T09:52:57.057Z,11.77
2018-06-09T09:55:27.111Z,8.60
2018-06-09T09:58:02.118Z,9.13
2018-06-09T10:00:39.819Z,12.55
2018-06-09T10:03:10.116Z,9.63
2018-06-09T10:05:40.335Z,11.77
2018-06-09T10:08:10.466Z,10.20
2018-06-09T10:10:40.421Z,10.97
2018-06-09T10:13:10.785Z,10.17
2018-06-09T10:15:41.217Z,8.50
2018-06-09T10:18:11.554Z,24.73
2018-06-09T10:20:41.557Z,13.53
2018-06-09T10:23:11.874Z,12.77
2018-06-09T10:25:41.910Z,12.50
2018-06-09T10:28:12.361Z,12.97
2018-06-09T10:30:42.523Z,8.47
2018-06-09T10:33:12.539Z,7.95
2018-06-09T10:35:42.546Z,6.43
2018-06-09T10:38:12.777Z,12.50
2018-06-09T10:40:43.224Z,16.27
2018-06-09T10:43:13.524Z,15.67
2018-06-09T10:45:44.013Z,15.28
2018-06-09T10:48:14.231Z,11.40
2018-06-09T10:50:47.145Z,11.78
2018-06-09T10:53:17.312Z,13.37
2018-06-09T10:55:47.468Z,13.83
2018-06-09T10:58:17.458Z,10.93
2018-06-09T11:00:47.571Z,8.95
2018-06-09T11:03:17.515Z,11.97
2018-06-09T11:05:47.593Z,7.90
2018-06-09T11:08:18.077Z,12.20
2018-06-09T11:10:48.017Z,9.73
2018-06-09T11:13:17.947Z,8.28
2018-06-09T11:15:48.180Z,13.38
2018-06-09T11:18:18.004Z,11.05
2018-06-09T11:20:48.185Z,14.33
2018-06-09T11:23:18.364Z,13.57
2018-06-09T11:25:48.734Z,13.43
2018-06-09T11:28:19.131Z,11.33
2018-06-09T11:30:49.157Z,13.50
2018-06-09T11:33:19.184Z,14.77
2018-06-09T11:35:49.186Z,14.13
2018-06-09T11:38:19.481Z,13.93
2018-06-09T11:40:49.429Z,11.93
2018-06-09T11:43:20.048Z,14.27
2018-06-09T11:45:50.167Z,14.75
2018-06-09T11:48:20.310Z,19.70
2018-06-09T11:50:50.436Z,16.13
2018-06-09T11:53:21.251Z,14.03
2018-06-09T11:55:51.316Z,11.95
2018-06-09T11:58:21.498Z,8.37
2018-06-09T12:00:51.462Z,9.10
2018-06-09T12:03:21.791Z,11.07
2018-06-09T12:05:51.751Z,11.43
2018-06-09T12:08:21.966Z,10.90
2018-06-09T12:10:52.392Z,12.60
2018-06-09T12:13:22.761Z,10.28
2018-06-09T12:15:53.296Z,11.87
2018-06-09T12:18:23.735Z,13.27
2018-06-09T12:20:53.893Z,13.22
2018-06-09T12:23:24.038Z,15.13
2018-06-09T12:25:54.343Z,13.43
2018-06-09T12:28:24.513Z,11.57
2018-06-09T12:30:54.670Z,11.17
2018-06-09T12:33:24.880Z,11.27
2018-06-09T12:35:55.096Z,12.00
2018-06-09T12:38:25.310Z,12.90
2018-06-09T12:40:55.541Z,12.70
2018-06-09T12:43:25.723Z,10.13
2018-06-09T12:45:55.747Z,11.33
2018-06-09T12:48:26.050Z,9.00
2018-06-09T12:50:56.141Z,14.30
2018-06-09T12:53:25.654Z,11.60
2018-06-09T12:55:55.713Z,12.97
2018-06-09T12:58:25.832Z,10.85
2018-06-09T13:00:56.621Z,11.70
2018-06-09T13:03:27.524Z,11.73
2018-06-09T13:05:57.290Z,11.27
2018-06-09T13:10:20.125Z,15.23
2018-06-09T13:12:50.209Z,10.83
2018-06-09T13:15:20.492Z,11.60
2018-06-09T13:17:50.628Z,10.23
2018-06-09T13:20:20.631Z,12.33
2018-06-09T13:22:51.107Z,10.17
2018-06-09T13:25:21.085Z,11.90
2018-06-09T13:27:51.512Z,13.73
2018-06-09T13:30:21.797Z,11.23
2018-06-09T13:32:52.282Z,33.42
2018-06-09T13:35:22.593Z,20.82
2018-06-09T13:37:52.576Z,9.50
2018-06-09T13:40:22.788Z,8.23
2018-06-09T13:42:53.138Z,13.37
2018-06-09T13:45:23.205Z,10.60
2018-06-09T13:47:53.607Z,9.60
2018-06-09T13:50:24.037Z,11.63
2018-06-09T13:52:54.325Z,9.90
2018-06-09T13:55:24.588Z,10.23
2018-06-09T13:57:54.302Z,10.93
2018-06-09T14:00:24.850Z,9.47
2018-06-09T14:02:54.977Z,8.00
2018-06-09T14:05:25.159Z,10.53
2018-06-09T14:07:55.333Z,10.53
2018-06-09T14:10:25.306Z,8.35
2018-06-09T14:12:55.674Z,8.23
2018-06-09T14:15:25.774Z,9.53
2018-06-09T14:17:56.004Z,7.33
2018-06-09T14:20:26.381Z,8.13
2018-06-09T14:22:56.496Z,10.10
2018-06-09T14:25:26.748Z,12.37
2018-06-09T14:27:57.046Z,11.87
2018-06-09T14:30:26.824Z,8.53
2018-06-09T14:32:57.172Z,9.23
2018-06-09T14:35:27.350Z,10.40
2018-06-09T14:37:57.480Z,7.92
2018-06-09T14:40:27.813Z,8.23
2018-06-09T14:42:58.168Z,8.90
2018-06-09T14:45:28.324Z,9.45
2018-06-09T14:47:58.444Z,8.67
2018-06-09T14:50:28.449Z,11.48
2018-06-09T14:52:58.595Z,24.10
2018-06-09T14:55:28.844Z,9.85
2018-06-09T14:57:59.214Z,7.43
2018-06-09T15:00:29.453Z,12.18
2018-06-09T15:02:59.569Z,13.43
2018-06-09T15:05:29.924Z,11.40
2018-06-09T15:08:00.051Z,11.88
2018-06-09T15:10:30.045Z,8.77
2018-06-09T15:13:00.304Z,20.83
2018-06-09T15:15:30.405Z,31.73
2018-06-09T15:18:00.119Z,41.20
2018-06-09T15:20:30.071Z,21.83
2018-06-09T15:23:00.256Z,15.87
2018-06-09T15:25:30.358Z,16.10
2018-06-09T15:28:00.472Z,15.27
2018-06-09T15:30:30.581Z,12.47
2018-06-09T15:33:01.124Z,29.72
2018-06-09T15:35:31.218Z,9.67
2018-06-09T15:38:02.079Z,12.80
2018-06-09T15:40:32.301Z,9.60
2018-06-09T15:43:02.530Z,9.05
2018-06-09T15:45:32.778Z,9.80
2018-06-09T15:48:02.908Z,8.80
2018-06-09T15:50:33.027Z,14.37
2018-06-09T15:53:03.442Z,8.10
2018-06-09T15:55:33.637Z,9.73
2018-06-09T15:58:03.836Z,7.78
2018-06-09T16:00:33.959Z,9.00
2018-06-09T16:03:04.096Z,8.68
2018-06-09T16:05:34.261Z,12.23
2018-06-09T16:08:04.400Z,19.02
2018-06-09T16:10:34.808Z,9.48
2018-06-09T16:13:04.998Z,7.47
2018-06-09T16:15:35.123Z,7.42
2018-06-09T16:18:05.276Z,7.45
2018-06-09T16:20:35.375Z,7.10
2018-06-09T16:23:05.795Z,12.00
2018-06-09T16:25:35.992Z,17.20
2018-06-09T16:28:06.269Z,17.70
2018-06-09T16:30:36.477Z,14.65
2018-06-09T16:33:06.545Z,11.10
2018-06-09T16:35:36.609Z,13.62
2018-06-09T16:38:06.834Z,15.50
2018-06-09T16:40:37.079Z,10.95
2018-06-09T16:43:07.357Z,8.45
2018-06-09T16:45:37.692Z,9.15
2018-06-09T16:48:07.853Z,7.97
2018-06-09T16:50:37.973Z,11.43
2018-06-09T16:53:08.127Z,8.08
2018-06-09T16:55:38.387Z,9.40
2018-06-09T16:58:08.465Z,10.40
2018-06-09T17:00:38.617Z,7.97
2018-06-09T17:03:08.804Z,7.95
2018-06-09T17:05:39.032Z,7.53
2018-06-09T17:08:09.302Z,7.92
2018-06-09T17:10:39.574Z,9.27
2018-06-09T17:13:10.054Z,24.02
2018-06-09T17:15:40.066Z,33.47
2018-06-09T17:18:10.073Z,12.45
2018-06-09T17:20:40.493Z,11.80
2018-06-09T17:23:11.269Z,13.60
2018-06-09T17:25:41.659Z,11.17
2018-06-09T17:28:12.283Z,15.60
2018-06-09T17:30:42.413Z,12.30
2018-06-09T17:33:12.597Z,23.03
2018-06-09T17:35:42.717Z,52.43
2018-06-09T17:38:12.860Z,43.43
2018-06-09T17:40:43.108Z,14.70
2018-06-09T17:43:13.461Z,55.17
2018-06-09T17:45:43.718Z,43.73
2018-06-09T17:48:13.512Z,19.92
2018-06-09T17:50:43.931Z,13.57
2018-06-09T17:53:14.312Z,13.65
2018-06-09T17:55:44.960Z,11.87
2018-06-09T17:58:15.209Z,15.10
2018-06-09T18:00:45.241Z,16.27
2018-06-09T18:03:15.507Z,22.10
2018-06-09T18:05:45.613Z,14.17
2018-06-09T18:08:15.549Z,12.77
2018-06-09T18:10:45.954Z,13.83
2018-06-09T18:13:16.267Z,10.48
2018-06-09T18:15:46.659Z,8.90
2018-06-09T18:18:16.779Z,13.18
2018-06-09T18:20:46.894Z,22.20
2018-06-09T18:23:17.135Z,21.55
2018-06-09T18:25:47.252Z,21.03
2018-06-09T18:28:17.628Z,12.13
2018-06-09T18:30:49.443Z,14.50
2018-06-09T18:33:19.669Z,19.25
2018-06-09T18:35:49.949Z,12.03
2018-06-09T18:38:20.202Z,46.68
2018-06-09T18:40:50.369Z,21.23
2018-06-09T18:43:20.685Z,36.07
2018-06-09T18:45:50.701Z,20.27
2018-06-09T18:48:21.111Z,15.57
2018-06-09T18:50:50.950Z,27.60
2018-06-09T18:53:21.405Z,102.13
2018-06-09T18:55:51.408Z,136.23
2018-06-09T18:58:21.378Z,101.00
2018-06-09T19:00:51.430Z,169.03
2018-06-09T19:03:21.316Z,116.80
2018-06-09T19:05:52.880Z,126.73
2018-06-09T19:08:22.990Z,57.57
2018-06-09T19:10:53.324Z,43.97
2018-06-09T19:13:23.235Z,41.13
2018-06-09T19:15:53.448Z,17.03
2018-06-09T19:18:23.824Z,59.20
2018-06-09T19:20:54.264Z,38.27
2018-06-09T19:23:24.704Z,64.33
2018-06-09T19:25:54.824Z,29.00
2018-06-09T19:28:24.993Z,18.60
2018-06-09T19:30:55.129Z,66.23
2018-06-09T19:33:25.475Z,36.03
2018-06-09T19:35:55.433Z,19.23
2018-06-09T19:38:25.343Z,15.90
2018-06-09T19:40:55.638Z,14.43
2018-06-09T19:43:25.775Z,26.17
2018-06-09T19:45:56.014Z,18.33
2018-06-09T19:48:25.704Z,16.47
2018-06-09T19:50:55.813Z,19.40
2018-06-09T19:53:26.049Z,50.63
2018-06-09T19:55:56.260Z,42.43
2018-06-09T19:58:26.309Z,34.23
2018-06-09T20:00:57.611Z,20.65
2018-06-09T20:03:29.029Z,16.53
2018-06-09T20:05:59.141Z,14.83
2018-06-09T20:08:29.222Z,16.67
2018-06-09T20:10:59.225Z,38.97
2018-06-09T20:13:29.697Z,61.50
2018-06-09T20:16:00.136Z,47.00
2018-06-09T20:18:30.735Z,32.77
2018-06-09T20:21:01.150Z,24.67
2018-06-09T20:23:31.482Z,38.70
2018-06-09T20:26:06.513Z,42.35
2018-06-09T20:28:36.644Z,32.77
2018-06-09T20:31:06.889Z,18.30
2018-06-09T20:33:36.919Z,17.13
2018-06-09T20:36:07.320Z,70.97
2018-06-09T20:38:37.472Z,19.00
2018-06-09T20:41:07.643Z,15.60
2018-06-09T20:43:37.852Z,17.10
2018-06-09T20:46:08.109Z,36.23
2018-06-09T20:48:38.404Z,17.00
2018-06-09T20:51:08.448Z,16.43
2018-06-09T20:53:38.542Z,14.00
2018-06-09T20:56:08.923Z,14.78
2018-06-09T20:58:39.487Z,15.78
2018-06-09T21:01:10.179Z,26.25
2018-06-09T21:03:40.734Z,22.02
2018-06-09T21:06:11.405Z,26.52
2018-06-09T21:08:41.994Z,19.10
2018-06-09T21:11:12.215Z,22.53
2018-06-09T21:13:42.917Z,23.60
2018-06-09T21:16:13.127Z,26.57
2018-06-09T21:18:44.210Z,18.20
2018-06-09T21:21:14.283Z,25.47
2018-06-09T21:23:44.788Z,37.40
2018-06-09T21:26:15.721Z,24.95
2018-06-09T21:28:50.944Z,35.78
2018-06-09T21:31:26.106Z,45.27
2018-06-09T21:35:17.920Z,29.07
2018-06-09T21:37:48.630Z,27.70
2018-06-09T21:40:23.825Z,25.20
2018-06-09T21:42:59.118Z,18.00
2018-06-09T21:45:34.388Z,29.27
2018-06-09T21:48:04.439Z,31.03
2018-06-09T21:50:35.068Z,24.90
2018-06-09T21:53:05.251Z,24.87
2018-06-09T21:55:35.249Z,24.87
2018-06-09T21:58:05.610Z,22.95
2018-06-09T22:00:35.864Z,31.50
2018-06-09T22:03:05.849Z,32.25
2018-06-09T22:05:36.041Z,22.30
2018-06-09T22:08:06.030Z,36.03
2018-06-09T22:10:36.060Z,37.78
2018-06-09T22:13:06.369Z,21.85
2018-06-09T22:15:36.855Z,17.07
2018-06-09T22:18:07.071Z,15.40
2018-06-09T22:20:37.201Z,13.30
2018-06-09T22:23:07.568Z,11.90
2018-06-09T22:25:42.799Z,12.57
2018-06-09T22:28:13.060Z,12.85
2018-06-09T22:30:43.208Z,10.73
2018-06-09T22:33:13.468Z,9.05
2018-06-09T22:35:43.408Z,8.55
2018-06-09T22:38:13.480Z,9.43
2018-06-09T22:40:43.470Z,8.70
2018-06-09T22:43:13.520Z,6.37
2018-06-09T22:45:43.697Z,6.23
2018-06-09T22:48:13.708Z,6.08
2018-06-09T22:50:44.063Z,6.58
2018-06-09T22:53:14.626Z,7.03
2018-06-09T22:55:44.605Z,7.13
2018-06-09T22:58:14.814Z,7.28
2018-06-09T23:00:51.110Z,8.53
2018-06-09T23:03:21.274Z,8.27
2018-06-09T23:05:51.215Z,7.50
2018-06-09T23:08:21.340Z,7.03
2018-06-09T23:10:51.185Z,6.78
2018-06-09T23:13:21.203Z,6.60
2018-06-09T23:15:51.443Z,6.87
2018-06-09T23:18:21.649Z,6.40
2018-06-09T23:20:51.960Z,5.00
2018-06-09T23:23:22.145Z,5.72
2018-06-09T23:25:52.414Z,6.33
2018-06-09T23:28:22.637Z,6.80
2018-06-09T23:30:52.841Z,6.83
2018-06-09T23:33:23.245Z,6.67
2018-06-09T23:35:53.985Z,6.73
2018-06-09T23:38:24.150Z,6.60
2018-06-09T23:40:54.208Z,6.10
2018-06-09T23:43:23.995Z,6.50
2018-06-09T23:45:54.035Z,6.20
2018-06-09T23:48:23.978Z,6.05
2018-06-09T23:50:54.024Z,6.47
2018-06-09T23:53:24.275Z,5.87
2018-06-09T23:55:54.455Z,6.23
2018-06-09T23:58:24.352Z,6.20
